Time;durP1;ratioP1;P1;durP2;ratioP2;P2;SDS_P1;SDS_P2;PMS_P1;PMS_P2;Temp;Humidity;BMP_temperature;BMP_pressure;BME280_temperature;BME280_humidity;BME280_pressure;Samples;Min_cycle;Max_cycle;Signal;HPM_P1;HPM_P2
2022/04/23 00:01:11;;;;;;;15.13;13.60;;;;;;;9.65;72.15;99973.62;1632568;87;21008;-71
2022/04/23 00:03:39;;;;;;;13.60;12.20;;;;;;;9.63;71.87;99976.48;1630631;87;21082;-70
2022/04/23 00:06:05;;;;;;;13.85;12.53;;;;;;;9.61;71.52;99959.88;1635722;87;21078;-71
2022/04/23 00:08:33;;;;;;;15.00;13.20;;;;;;;9.61;71.50;99970.52;1645378;87;22174;-72
2022/04/23 00:10:59;;;;;;;13.88;12.58;;;;;;;9.55;71.47;99976.62;1617508;87;21588;-72
2022/04/23 00:13:26;;;;;;;14.43;12.55;;;;;;;9.50;71.53;99980.34;1676286;82;21069;-72
2022/04/23 00:15:54;;;;;;;13.13;11.73;;;;;;;9.47;71.28;99978.05;1664580;85;21109;-72
2022/04/23 00:18:22;;;;;;;14.63;11.77;;;;;;;9.43;71.39;99949.67;1664399;85;21166;-72
2022/04/23 00:20:48;;;;;;;12.60;11.38;;;;;;;9.39;71.46;99973.68;1665580;85;21078;-72
2022/04/23 00:23:17;;;;;;;11.80;10.40;;;;;;;9.41;71.61;99962.34;1664504;84;21132;-71
2022/04/23 00:25:46;;;;;;;14.50;11.53;;;;;;;9.42;71.58;99949.86;1665891;85;21559;-72
2022/04/23 00:28:13;;;;;;;11.43;10.43;;;;;;;9.35;71.62;99949.30;1664831;85;21571;-72
2022/04/23 00:30:40;;;;;;;11.53;10.33;;;;;;;9.32;71.77;99952.36;1665501;85;21058;-72
2022/04/23 00:33:09;;;;;;;11.27;10.07;;;;;;;9.29;71.97;99957.22;1664200;84;21100;-72
2022/04/23 00:35:37;;;;;;;11.60;10.40;;;;;;;9.29;72.11;99940.75;1673872;85;21680;-72
2022/04/23 00:38:05;;;;;;;11.90;10.90;;;;;;;9.29;72.07;99958.55;1691860;85;21077;-72
2022/04/23 00:40:32;;;;;;;12.73;11.53;;;;;;;9.24;72.20;99962.28;1688619;85;21094;-71
2022/04/23 00:43:01;;;;;;;14.33;10.60;;;;;;;9.24;72.26;99960.95;1669805;85;21083;-70
2022/04/23 00:45:28;;;;;;;11.70;10.67;;;;;;;9.19;72.40;99952.19;1665844;84;21079;-71
2022/04/23 00:47:55;;;;;;;12.40;11.20;;;;;;;9.14;72.54;99958.09;1665780;85;22368;-71
2022/04/23 00:50:23;;;;;;;12.53;10.43;;;;;;;9.09;72.53;99933.08;1664544;85;21133;-70
2022/04/23 00:53:00;;;;;;;9.13;8.27;;;;;;;9.09;72.51;99933.08;1665536;85;21154;-72
2022/04/23 00:55:33;;;;;;;11.80;10.50;;;;;;;9.00;72.65;99926.23;1664472;84;21113;-72
2022/04/23 00:57:59;;;;;;;11.67;10.50;;;;;;;8.95;72.79;99932.94;1663312;85;21077;-70
2022/04/23 01:00:26;;;;;;;12.53;11.33;;;;;;;8.91;72.98;99901.58;1665268;84;21060;-72
2022/04/23 01:02:54;;;;;;;11.93;10.73;;;;;;;8.87;73.10;99909.14;1668453;85;21078;-72
2022/04/23 01:05:23;;;;;;;11.90;10.77;;;;;;;8.82;73.42;99909.38;1636491;86;21193;-71
2022/04/23 01:07:53;;;;;;;12.20;10.73;;;;;;;8.81;73.62;99913.03;1666270;85;21561;-70
2022/04/23 01:10:21;;;;;;;10.77;9.77;;;;;;;8.82;73.80;99919.50;1664540;85;21681;-72
2022/04/23 01:12:49;;;;;;;10.30;9.33;;;;;;;8.81;73.73;99923.15;1684105;84;21603;-70
2022/04/23 01:15:16;;;;;;;10.07;9.17;;;;;;;8.75;73.87;99917.27;1689305;85;21040;-71
2022/04/23 01:17:43;;;;;;;;;;;;;;;8.76;73.63;99922.91;1668244;85;21099;-73
2022/04/23 01:20:14;;;;;;;9.87;8.97;;;;;;;8.71;73.45;99912.83;1684295;84;20159;-72
2022/04/23 01:22:43;;;;;;;10.37;9.47;;;;;;;8.64;73.59;99911.91;1664561;84;21128;-72
2022/04/23 01:25:13;;;;;;;10.50;9.57;;;;;;;8.67;73.61;99913.40;1665518;85;21013;-71
2022/04/23 01:27:45;;;;;;;9.83;9.03;;;;;;;8.66;73.39;99905.09;1662109;85;21028;-70
2022/04/23 01:30:13;;;;;;;9.73;8.90;;;;;;;8.62;73.10;99906.48;1665309;85;21024;-73
2022/04/23 01:32:40;;;;;;;8.95;8.15;;;;;;;8.64;73.24;99903.94;1664791;85;21393;-72
2022/04/23 01:35:08;;;;;;;10.38;9.48;;;;;;;8.66;73.06;99897.94;1676344;84;21178;-70
2022/04/23 01:37:33;;;;;;;10.83;9.83;;;;;;;8.66;72.94;99907.23;1664871;85;21006;-71
2022/04/23 01:40:00;;;;;;;10.82;9.83;;;;;;;8.61;72.91;99909.65;1663468;85;21055;-70
2022/04/23 01:42:26;;;;;;;9.00;8.30;;;;;;;8.54;73.18;99908.74;1665686;85;21551;-72
2022/04/23 01:44:54;;;;;;;9.95;9.10;;;;;;;8.55;73.19;99901.08;1665462;83;21594;-70
2022/04/23 01:47:20;;;;;;;10.27;9.37;;;;;;;8.50;73.47;99908.80;1664813;85;21130;-71
2022/04/23 01:49:46;;;;;;;8.45;7.75;;;;;;;8.50;73.46;99904.30;1664906;85;21129;-70
2022/04/23 01:52:14;;;;;;;7.90;7.20;;;;;;;8.50;73.46;99915.44;1664731;85;21113;-70
2022/04/23 01:54:42;;;;;;;7.13;6.63;;;;;;;8.42;73.54;99907.06;1671811;85;21083;-71
2022/04/23 01:57:08;;;;;;;7.67;6.97;;;;;;;8.44;73.73;99915.67;1669395;84;21571;-70
2022/04/23 01:59:34;;;;;;;;;;;;;;;8.42;73.74;99899.58;1668291;85;21569;-70
2022/04/23 02:02:01;;;;;;;9.87;8.97;;;;;;;8.39;73.98;99894.11;1665722;84;20147;-73
2022/04/23 02:04:28;;;;;;;8.77;7.77;;;;;;;8.34;74.22;99902.65;1665732;85;21081;-72
2022/04/23 02:06:54;;;;;;;8.25;7.55;;;;;;;8.27;74.65;99845.97;1666175;85;21941;-70
2022/04/23 02:09:21;;;;;;;9.53;8.53;;;;;;;8.24;74.92;99876.86;1665261;85;21929;-72
2022/04/23 02:11:49;;;;;;;9.10;8.37;;;;;;;8.16;75.36;99895.05;1659024;85;21523;-71
2022/04/23 02:14:17;;;;;;;8.73;7.77;;;;;;;8.24;75.34;99895.45;1656688;85;21133;-70
2022/04/23 02:16:44;;;;;;;9.43;8.70;;;;;;;8.24;75.53;99898.62;1657702;86;21185;-72
2022/04/23 02:19:11;;;;;;;10.28;9.43;;;;;;;8.27;75.59;99891.59;1658602;85;21085;-71
2022/04/23 02:21:38;;;;;;;15.70;9.50;;;;;;;8.20;75.89;99887.54;1657848;85;21123;-70
2022/04/23 02:24:08;;;;;;;10.47;9.47;;;;;;;8.23;75.98;99887.18;1646380;85;21125;-71
2022/04/23 02:26:34;;;;;;;9.40;7.93;;;;;;;8.19;76.22;99879.23;1644042;86;21173;-71
2022/04/23 02:29:03;;;;;;;9.83;8.93;;;;;;;8.19;76.45;99892.03;1651245;86;21135;-71
2022/04/23 02:31:30;;;;;;;10.03;9.17;;;;;;;8.13;76.90;99879.98;1656700;86;21052;-72
2022/04/23 02:33:57;;;;;;;8.30;7.60;;;;;;;8.08;77.11;99897.80;1676399;83;21053;-71
2022/04/23 02:36:24;;;;;;;6.90;6.30;;;;;;;8.05;77.61;99914.59;1715065;82;21029;-71
2022/04/23 02:38:52;;;;;;;6.40;5.90;;;;;;;7.99;77.92;99878.98;1708744;83;21128;-71
2022/04/23 02:41:19;;;;;;;6.95;6.35;;;;;;;7.97;78.42;99897.73;1710249;82;21506;-70
2022/04/23 02:43:47;;;;;;;6.37;5.43;;;;;;;7.96;79.02;99925.27;1712668;82;21480;-69
2022/04/23 02:46:15;;;;;;;5.10;4.70;;;;;;;7.92;79.62;99901.95;1669247;84;21215;-70
2022/04/23 02:48:42;;;;;;;4.90;4.50;;;;;;;7.87;79.93;99913.09;1673702;84;21121;-71
2022/04/23 02:51:15;;;;;;;4.37;4.07;;;;;;;7.75;80.31;99890.16;1664277;84;21048;-71
2022/04/23 02:53:43;;;;;;;4.40;4.20;;;;;;;7.76;81.44;99914.85;1664422;84;21225;-70
2022/04/23 02:56:13;;;;;;;3.73;3.57;;;;;;;7.72;82.21;99910.92;1653820;84;21050;-71
2022/04/23 02:58:40;;;;;;;5.23;4.93;;;;;;;7.64;83.10;99907.02;1640211;86;21142;-70
2022/04/23 03:01:10;;;;;;;5.22;4.83;;;;;;;7.57;83.51;99911.73;1639470;86;21169;-71
2022/04/23 03:03:39;;;;;;;5.13;4.73;;;;;;;7.52;83.76;99906.12;1638562;86;21689;-70
2022/04/23 03:06:07;;;;;;;7.20;4.97;;;;;;;7.39;84.76;99893.98;1639651;86;21022;-70
2022/04/23 03:08:37;;;;;;;4.57;4.27;;;;;;;7.37;85.26;99909.24;1640705;86;21082;-70
2022/04/23 03:11:09;;;;;;;5.07;4.80;;;;;;;7.29;85.58;99895.55;1658525;84;21648;-70
2022/04/23 03:13:35;;;;;;;4.97;4.57;;;;;;;7.23;85.19;99889.61;1638768;85;22055;-70
2022/04/23 03:16:04;;;;;;;5.40;4.90;;;;;;;7.20;85.71;99902.73;1647965;85;21050;-73
2022/04/23 03:18:31;;;;;;;5.00;4.70;;;;;;;7.15;85.07;99905.08;1629768;85;21089;-69
2022/04/23 03:20:59;;;;;;;5.67;5.27;;;;;;;7.16;85.72;99901.95;1623470;85;21038;-71
2022/04/23 03:23:27;;;;;;;4.70;4.40;;;;;;;7.14;85.03;99896.82;1632047;86;21118;-69
2022/04/23 03:25:54;;;;;;;7.47;4.73;;;;;;;7.11;84.66;99883.09;1636847;86;21079;-71
2022/04/23 03:28:22;;;;;;;4.87;4.47;;;;;;;7.21;84.45;99895.11;1632170;86;21118;-69
2022/04/23 03:30:49;;;;;;;5.90;5.33;;;;;;;7.19;84.23;99899.73;1638833;86;21168;-70
2022/04/23 03:33:16;;;;;;;;;;;;;;;7.19;83.58;99901.06;1648625;85;21561;-71
2022/04/23 03:35:42;;;;;;;5.65;5.17;;;;;;;7.20;83.90;99900.59;1646107;86;20152;-70
2022/04/23 03:38:10;;;;;;;5.07;4.67;;;;;;;7.16;84.04;99890.02;1637739;86;21091;-68
2022/04/23 03:40:38;;;;;;;4.60;4.30;;;;;;;7.19;84.05;99893.11;1638020;86;21071;-70
2022/04/23 03:43:04;;;;;;;;;;;;;;;7.26;83.69;99879.98;1640583;86;21141;-71
2022/04/23 03:45:33;;;;;;;;;;;;;;;7.29;83.79;99888.08;1640987;86;20170;-71
2022/04/23 03:48:00;;;;;;;5.47;5.03;;;;;;;7.29;83.78;99887.59;1638207;86;20229;-71
2022/04/23 03:50:26;;;;;;;5.43;4.93;;;;;;;7.28;83.80;99879.81;1638104;86;21531;-70
2022/04/23 03:52:56;;;;;;;4.93;4.53;;;;;;;7.25;83.70;99880.16;1632043;86;21072;-71
2022/04/23 03:55:26;;;;;;;5.67;4.50;;;;;;;7.28;84.04;99881.95;1638715;86;21102;-70
2022/04/23 03:57:54;;;;;;;6.73;6.13;;;;;;;7.25;84.21;99884.95;1652609;85;21025;-71
2022/04/23 04:00:23;;;;;;;5.90;5.33;;;;;;;7.26;84.68;99877.84;1651734;85;21623;-71
2022/04/23 04:02:50;;;;;;;6.53;4.93;;;;;;;7.24;84.78;99886.48;1638550;87;21065;-71
2022/04/23 04:05:18;;;;;;;5.70;5.30;;;;;;;7.25;84.66;99892.09;1639408;86;21041;-71
2022/04/23 04:07:47;;;;;;;4.90;4.50;;;;;;;7.24;84.61;99880.67;1636203;87;22288;-70
2022/04/23 04:10:18;;;;;;;6.30;5.80;;;;;;;7.25;84.65;99881.48;1582567;89;21096;-71
2022/04/23 04:12:47;;;;;;;5.43;5.07;;;;;;;7.28;84.53;99883.28;1651538;85;21070;-71
2022/04/23 04:15:17;;;;;;;4.57;4.27;;;;;;;7.27;84.69;99879.48;1658335;85;21088;-71
2022/04/23 04:17:54;;;;;;;5.47;5.03;;;;;;;7.29;84.88;99888.92;1656436;85;20998;-70
2022/04/23 04:20:20;;;;;;;6.50;5.87;;;;;;;7.30;84.88;99883.11;1657509;86;21104;-72
2022/04/23 04:22:49;;;;;;;6.63;6.00;;;;;;;7.25;85.39;99877.00;1658015;84;21552;-70
2022/04/23 04:25:17;;;;;;;6.10;5.47;;;;;;;7.24;85.45;99878.53;1657249;85;21105;-70
2022/04/23 04:27:45;;;;;;;6.17;5.57;;;;;;;7.22;85.92;99877.38;1657899;85;21045;-71
2022/04/23 04:30:12;;;;;;;6.30;5.83;;;;;;;7.23;86.11;99876.87;1658555;85;22129;-71
2022/04/23 04:32:41;;;;;;;6.43;5.93;;;;;;;7.12;86.74;99884.25;1657170;85;21133;-70
2022/04/23 04:35:09;;;;;;;10.43;6.60;;;;;;;7.16;86.90;99868.81;1658376;84;21160;-70
2022/04/23 04:37:37;;;;;;;7.20;6.47;;;;;;;7.15;87.13;99889.17;1658067;85;21136;-70
2022/04/23 04:40:05;;;;;;;6.73;5.37;;;;;;;7.14;87.30;99876.09;1667995;85;21521;-70
2022/04/23 04:42:32;;;;;;;7.33;6.60;;;;;;;7.10;87.12;99876.98;1658349;86;21176;-70
2022/04/23 04:44:58;;;;;;;4.83;4.47;;;;;;;7.16;87.05;99863.52;1658487;85;21853;-72
2022/04/23 04:47:25;;;;;;;7.20;6.50;;;;;;;7.20;86.98;99872.25;1658580;86;21057;-71
2022/04/23 04:49:54;;;;;;;7.57;6.87;;;;;;;7.20;86.83;99860.83;1655970;85;21132;-70
2022/04/23 04:52:20;;;;;;;7.27;6.67;;;;;;;7.18;87.11;99875.58;1657904;85;21097;-70
2022/04/23 04:54:48;;;;;;;6.70;6.00;;;;;;;7.19;87.11;99859.98;1658426;85;21123;-70
2022/04/23 04:57:17;;;;;;;7.23;6.57;;;;;;;7.17;87.08;99868.61;1657838;85;21114;-71
2022/04/23 04:59:43;;;;;;;7.20;6.50;;;;;;;7.17;87.28;99855.36;1657433;86;21114;-71
2022/04/23 05:02:11;;;;;;;9.23;7.60;;;;;;;7.25;86.83;99861.09;1657062;85;21085;-72
2022/04/23 05:04:37;;;;;;;7.75;6.60;;;;;;;7.26;86.64;99856.13;1661048;85;20995;-71
2022/04/23 05:07:04;;;;;;;14.63;7.30;;;;;;;7.28;86.37;99876.66;1638429;86;21114;-70
2022/04/23 05:09:32;;;;;;;11.37;7.43;;;;;;;7.36;85.96;99866.48;1623713;87;21112;-71
2022/04/23 05:11:59;;;;;;;10.97;7.87;;;;;;;7.43;85.85;99858.65;1622905;87;21053;-71
2022/04/23 05:14:27;;;;;;;12.30;8.03;;;;;;;7.48;85.57;99871.69;1623390;87;21625;-71
2022/04/23 05:16:53;;;;;;;13.93;8.08;;;;;;;7.52;85.53;99871.66;1607099;88;21122;-70
2022/04/23 05:19:21;;;;;;;7.60;6.77;;;;;;;7.59;85.21;99864.63;1677546;85;21042;-70
2022/04/23 05:21:47;;;;;;;8.70;7.70;;;;;;;7.58;84.78;99832.47;1656972;85;21159;-71
2022/04/23 05:24:14;;;;;;;10.15;7.00;;;;;;;7.66;85.18;99866.55;1623315;86;21033;-72
2022/04/23 05:26:41;;;;;;;10.77;7.67;;;;;;;7.66;84.97;99871.86;1640323;87;21675;-70
2022/04/23 05:29:09;;;;;;;8.00;6.90;;;;;;;7.75;84.81;99870.77;1657268;85;21054;-71
2022/04/23 05:31:38;;;;;;;14.57;7.33;;;;;;;7.90;84.71;99857.52;1657472;85;21555;-72
2022/04/23 05:34:05;;;;;;;7.23;6.43;;;;;;;8.16;84.26;99858.39;1622232;87;21122;-72
2022/04/23 05:36:33;;;;;;;7.20;6.53;;;;;;;8.38;82.46;99855.27;1623186;88;21060;-72
2022/04/23 05:39:00;;;;;;;8.60;7.47;;;;;;;8.43;81.88;99850.27;1656788;85;21121;-72
2022/04/23 05:41:27;;;;;;;8.70;7.90;;;;;;;8.36;81.89;99852.83;1658174;86;21238;-72
2022/04/23 05:43:53;;;;;;;9.68;7.40;;;;;;;8.31;82.30;99848.57;1658094;86;21069;-72
2022/04/23 05:46:19;;;;;;;7.47;6.60;;;;;;;8.25;82.69;99833.39;1657482;85;21092;-72
2022/04/23 05:48:46;;;;;;;8.47;7.77;;;;;;;8.28;82.75;99830.34;1656898;86;21117;-72
2022/04/23 05:51:12;;;;;;;9.75;8.05;;;;;;;8.36;83.11;99841.36;1657880;86;21061;-71
2022/04/23 05:53:38;;;;;;;;;;;;;;;8.37;82.38;99823.10;1659507;86;21092;-72
2022/04/23 05:56:04;;;;;;;8.43;7.63;;;;;;;8.44;82.30;99835.99;1657867;85;20133;-72
2022/04/23 05:58:36;;;;;;;9.23;8.23;;;;;;;8.45;82.04;99827.52;1657745;85;21078;-72
2022/04/23 06:01:03;;;;;;;8.30;7.50;;;;;;;8.50;81.76;99839.73;1668330;85;21069;-71
2022/04/23 06:03:31;;;;;;;9.57;7.60;;;;;;;8.44;81.86;99850.60;1674512;85;21488;-72
2022/04/23 06:05:58;;;;;;;8.60;7.80;;;;;;;8.42;82.05;99840.67;1656400;85;21161;-72
2022/04/23 06:08:25;;;;;;;8.17;7.40;;;;;;;8.47;82.72;99830.80;1657661;85;21086;-73
2022/04/23 06:10:52;;;;;;;8.77;7.87;;;;;;;8.56;82.61;99837.14;1657429;86;21073;-71
2022/04/23 06:13:20;;;;;;;8.50;7.00;;;;;;;8.69;81.82;99823.18;1655989;85;21661;-72
2022/04/23 06:15:47;;;;;;;8.00;7.40;;;;;;;8.86;81.39;99830.40;1656740;85;21022;-71
2022/04/23 06:18:15;;;;;;;8.57;7.67;;;;;;;9.02;80.52;99825.33;1657901;86;21652;-71
2022/04/23 06:20:41;;;;;;;9.60;8.60;;;;;;;9.03;80.15;99824.33;1657714;85;21109;-71
2022/04/23 06:23:08;;;;;;;7.53;6.93;;;;;;;9.10;79.42;99820.41;1657009;86;21160;-71
2022/04/23 06:25:36;;;;;;;8.77;7.97;;;;;;;9.16;79.33;99832.93;1657912;86;21217;-71
2022/04/23 06:28:04;;;;;;;8.15;7.45;;;;;;;9.16;77.87;99837.73;1657876;85;21928;-72
2022/04/23 06:30:31;;;;;;;8.47;7.67;;;;;;;9.23;78.89;99824.99;1657261;85;21054;-73
2022/04/23 06:32:59;;;;;;;8.10;6.87;;;;;;;9.30;77.87;99820.55;1656575;85;21070;-73
2022/04/23 06:35:26;;;;;;;11.38;8.03;;;;;;;9.31;77.63;99824.36;1657838;86;21052;-70
2022/04/23 06:37:54;;;;;;;8.37;7.57;;;;;;;9.39;77.56;99814.08;1657852;85;21224;-72
2022/04/23 06:40:20;;;;;;;9.00;7.13;;;;;;;9.49;76.84;99813.25;1657553;85;21549;-72
2022/04/23 06:42:47;;;;;;;8.97;8.10;;;;;;;9.50;76.04;99819.39;1664096;85;21744;-72
2022/04/23 06:45:13;;;;;;;8.45;7.33;;;;;;;9.55;76.18;99815.12;1674779;85;21060;-73
2022/04/23 06:47:41;;;;;;;7.23;6.63;;;;;;;9.52;75.70;99790.23;1645017;86;21200;-71
2022/04/23 06:50:10;;;;;;;7.67;6.87;;;;;;;9.57;75.65;99799.46;1635772;85;21109;-72
2022/04/23 06:52:36;;;;;;;7.97;7.27;;;;;;;9.53;75.27;99796.36;1631430;85;21197;-73
2022/04/23 06:55:05;;;;;;;8.97;8.00;;;;;;;9.52;74.62;99810.19;1648122;85;21085;-73
2022/04/23 06:57:31;;;;;;;8.53;7.80;;;;;;;9.52;75.36;99807.52;1654996;85;21121;-74
2022/04/23 07:00:01;;;;;;;8.77;7.83;;;;;;;9.65;75.47;99801.98;1658120;86;21120;-72
2022/04/23 07:02:29;;;;;;;7.60;6.97;;;;;;;9.73;74.41;99796.50;1654118;85;21616;-72
2022/04/23 07:04:55;;;;;;;7.83;7.12;;;;;;;9.73;74.29;99791.17;1642880;85;21089;-71
2022/04/23 07:07:22;;;;;;;7.50;6.80;;;;;;;9.74;72.86;99793.65;1656907;85;21177;-71
2022/04/23 07:09:50;;;;;;;8.07;7.27;;;;;;;9.89;73.53;99788.20;1657915;85;21089;-72
2022/04/23 07:12:17;;;;;;;8.83;8.08;;;;;;;10.06;72.42;99810.51;1655760;85;21045;-73
2022/04/23 07:14:44;;;;;;;8.97;7.90;;;;;;;10.23;71.87;99783.84;1647395;85;21100;-73
2022/04/23 07:17:10;;;;;;;7.70;7.08;;;;;;;10.40;71.05;99783.52;1649049;85;21109;-73
2022/04/23 07:19:40;;;;;;;7.17;6.63;;;;;;;10.60;70.76;99769.70;1638821;85;21573;-73
2022/04/23 07:22:07;;;;;;;8.67;7.43;;;;;;;10.70;68.64;99783.48;1657938;85;21053;-72
2022/04/23 07:24:37;;;;;;;8.07;7.37;;;;;;;10.76;68.92;99771.70;1601307;87;21545;-72
2022/04/23 07:27:04;;;;;;;9.63;7.57;;;;;;;10.78;68.58;99766.98;1636883;85;21617;-71
2022/04/23 07:29:31;;;;;;;7.13;6.60;;;;;;;10.89;69.09;99769.05;1650349;85;21549;-73
2022/04/23 07:31:58;;;;;;;6.47;6.07;;;;;;;11.02;66.47;99794.39;1669689;85;22343;-72
2022/04/23 07:39:59;;;;;;;6.30;5.90;;;;;;;11.19;65.99;99776.12;1685320;84;21084;-72
2022/04/23 07:42:27;;;;;;;6.07;5.47;;;;;;;11.24;64.87;99759.48;1626048;86;21092;-73
2022/04/23 07:44:55;;;;;;;7.17;6.57;;;;;;;11.31;65.09;99768.31;1647971;85;21037;-74
2022/04/23 07:47:23;;;;;;;6.87;6.37;;;;;;;11.37;65.07;99744.80;1671216;85;21097;-71
2022/04/23 07:49:50;;;;;;;7.20;6.60;;;;;;;11.53;64.50;99738.70;1657270;85;21160;-75
2022/04/23 07:52:17;;;;;;;6.43;5.93;;;;;;;11.72;63.18;99755.20;1654500;86;21065;-71
2022/04/23 07:54:44;;;;;;;6.03;5.67;;;;;;;11.68;63.21;99747.31;1657754;86;21085;-72
2022/04/23 07:57:13;;;;;;;5.93;5.40;;;;;;;11.67;62.86;99736.31;1656612;85;21590;-71
2022/04/23 07:59:41;;;;;;;6.43;5.93;;;;;;;11.68;62.74;99728.63;1657751;85;21128;-73
2022/04/23 08:02:10;;;;;;;6.67;6.00;;;;;;;11.74;63.09;99741.13;1658140;85;21076;-69
2022/04/23 08:04:37;;;;;;;6.50;5.90;;;;;;;11.82;61.92;99740.88;1639265;85;21109;-72
2022/04/23 08:07:04;;;;;;;7.37;6.47;;;;;;;11.70;60.59;99741.24;1640491;86;21072;-74
2022/04/23 08:09:39;;;;;;;5.65;5.12;;;;;;;11.68;60.72;99713.41;1653388;85;21134;-72
2022/04/23 08:12:10;;;;;;;8.50;5.53;;;;;;;11.79;60.61;99710.61;1644149;85;21116;-74
2022/04/23 08:14:38;;;;;;;5.97;5.57;;;;;;;11.99;59.70;99743.92;1658195;86;21135;-74
2022/04/23 08:17:05;;;;;;;5.40;5.03;;;;;;;12.08;59.00;99721.80;1658106;86;21085;-72
2022/04/23 08:19:33;;;;;;;5.27;4.87;;;;;;;12.15;59.40;99713.25;1654461;85;21156;-72
2022/04/23 08:22:00;;;;;;;5.62;4.62;;;;;;;12.27;58.76;99705.36;1644640;85;21432;-74
2022/04/23 08:24:31;;;;;;;4.83;4.43;;;;;;;12.26;56.85;99725.92;1646584;85;21077;-72
2022/04/23 08:26:57;;;;;;;5.30;4.23;;;;;;;12.28;56.87;99716.34;1662597;85;21502;-72
2022/04/23 08:32:09;;;;;;;4.42;4.12;;;;;;;12.25;56.64;99698.89;1657446;85;21057;-73
2022/04/23 08:37:37;;;;;;;4.37;4.08;;;;;;;12.62;55.54;99673.66;1792134;79;23617;-73
2022/04/23 08:40:07;;;;;;;5.05;4.37;;;;;;;12.70;54.01;99663.74;1762104;80;21091;-72
2022/04/23 08:42:38;;;;;;;4.35;3.92;;;;;;;12.72;54.41;99692.41;1754426;80;21043;-72
2022/04/23 08:45:07;;;;;;;4.87;4.50;;;;;;;12.76;54.87;99678.91;1736416;80;21020;-72
2022/04/23 08:47:36;;;;;;;4.45;4.03;;;;;;;12.45;53.20;99615.92;1691544;84;21935;-71
2022/04/23 08:50:05;;;;;;;5.00;4.47;;;;;;;12.84;54.64;99678.09;1685730;84;21313;-70
2022/04/23 08:52:32;;;;;;;4.58;4.08;;;;;;;12.62;54.90;99642.92;1679131;83;21131;-72
2022/04/23 08:55:06;;;;;;;4.60;4.30;;;;;;;13.00;53.02;99676.73;1677805;84;21070;-74
2022/04/23 08:57:33;;;;;;;4.10;3.87;;;;;;;12.95;52.25;99675.22;1698511;84;21583;-72
2022/04/23 09:00:00;;;;;;;4.42;4.03;;;;;;;12.85;53.27;99674.92;1677884;84;21024;-73
2022/04/23 09:02:29;;;;;;;4.00;3.50;;;;;;;12.84;51.96;99675.41;1697472;84;20993;-72
2022/04/23 09:04:55;;;;;;;3.92;3.58;;;;;;;12.88;51.62;99646.91;1683076;84;21099;-74
2022/04/23 09:07:26;;;;;;;4.15;3.85;;;;;;;12.83;51.40;99636.88;1706962;84;21124;-73
2022/04/23 09:09:56;;;;;;;5.22;4.30;;;;;;;12.89;51.91;99661.41;1687564;84;21059;-74
2022/04/23 09:12:26;;;;;;;3.87;3.55;;;;;;;12.97;51.32;99639.70;1657945;84;21117;-73
2022/04/23 09:14:58;;;;;;;3.42;3.22;;;;;;;13.04;51.17;99644.48;1641075;86;21046;-73
2022/04/23 09:25:46;;;;;;;5.58;4.05;;;;;;;13.41;51.04;99639.67;1655336;85;21116;-74
2022/04/23 09:28:26;;;;;;;4.10;3.80;;;;;;;13.42;50.87;99634.10;1653777;85;21115;-72
2022/04/23 09:30:56;;;;;;;2.90;2.80;;;;;;;13.49;51.52;99621.19;1654669;85;21104;-73
2022/04/23 09:33:29;;;;;;;5.40;3.20;;;;;;;13.63;50.79;99560.52;1657154;84;20999;-74
2022/04/23 09:36:03;;;;;;;7.72;3.65;;;;;;;13.68;49.52;99625.98;1673316;84;21181;-73
2022/04/23 09:38:31;;;;;;;5.12;4.62;;;;;;;13.75;50.92;99602.59;1667582;84;21066;-72
2022/04/23 09:41:19;;;;;;;5.87;5.47;;;;;;;13.83;52.63;99664.70;1678828;84;21597;-72
2022/04/23 09:43:48;;;;;;;4.83;4.42;;;;;;;13.81;52.50;99614.56;1676190;84;21081;-74
2022/04/23 09:46:15;;;;;;;4.55;4.15;;;;;;;13.77;52.29;99616.06;1638437;85;21121;-73
2022/04/23 09:48:43;;;;;;;4.87;4.33;;;;;;;13.82;52.69;99610.02;1677583;84;21088;-71
2022/04/23 09:51:26;;;;;;;5.70;5.30;;;;;;;13.95;52.75;99617.05;1669540;84;21049;-74
2022/04/23 09:53:54;;;;;;;5.72;5.22;;;;;;;13.53;51.80;99524.64;1671483;84;21125;-73
2022/04/23 09:56:25;;;;;;;7.87;6.75;;;;;;;13.81;52.99;99603.85;1672038;84;21056;-71
2022/04/23 09:58:54;;;;;;;22.65;10.98;;;;;;;13.77;54.15;99605.36;1665581;85;21264;-75
2022/04/23 10:01:22;;;;;;;15.28;8.95;;;;;;;13.67;54.90;99639.06;1671727;84;21523;-74
2022/04/23 10:03:53;;;;;;;14.50;9.10;;;;;;;13.50;54.99;99592.82;1682099;84;21056;-73
2022/04/23 10:06:23;;;;;;;8.48;6.55;;;;;;;13.43;56.42;99598.80;1682572;84;21150;-73
2022/04/23 10:08:55;;;;;;;11.43;7.00;;;;;;;13.52;55.60;99597.95;1681965;84;21086;-72
2022/04/23 10:11:29;;;;;;;15.08;8.13;;;;;;;13.62;55.40;99580.31;1682303;84;21144;-73
2022/04/23 10:14:00;;;;;;;15.93;7.95;;;;;;;13.73;55.21;99590.79;1682613;84;21003;-73
2022/04/23 10:16:29;;;;;;;8.75;6.95;;;;;;;13.69;55.06;99585.56;1682526;84;21023;-73
2022/04/23 10:18:57;;;;;;;22.25;9.70;;;;;;;13.69;55.02;99581.55;1682601;84;21021;-73
2022/04/23 10:21:49;;;;;;;8.68;6.10;;;;;;;13.75;55.94;99590.53;1663160;84;21616;-75
2022/04/23 10:24:36;;;;;;;13.00;8.05;;;;;;;13.76;55.10;99558.17;1674662;84;21561;-74
2022/04/23 10:27:10;;;;;;;7.17;5.95;;;;;;;13.88;55.16;99561.41;1682541;84;21155;-72
2022/04/23 10:29:37;;;;;;;9.40;5.33;;;;;;;14.04;54.46;99546.02;1682049;84;21021;-74
2022/04/23 10:32:19;;;;;;;4.95;4.55;;;;;;;14.22;54.05;99546.44;1681022;84;21564;-73
2022/04/23 10:34:48;;;;;;;9.40;4.10;;;;;;;14.43;51.81;99554.47;1681980;84;21069;-74
2022/04/23 10:37:25;;;;;;;1.65;1.55;;;;;;;14.69;51.85;99525.55;1680713;84;21137;-73
2022/04/23 10:39:57;;;;;;;1.75;1.65;;;;;;;14.95;45.97;99529.05;1681648;84;21144;-73
2022/04/23 10:42:26;;;;;;;1.82;1.40;;;;;;;15.18;44.69;99530.05;1643587;86;21075;-73
2022/04/23 10:44:56;;;;;;;2.55;1.27;;;;;;;15.32;44.06;99517.98;1681052;84;21564;-74
2022/04/23 10:47:38;;;;;;;1.67;1.25;;;;;;;15.42;42.58;99518.70;1644411;86;21127;-71
2022/04/23 10:50:23;;;;;;;1.60;0.90;;;;;;;15.47;42.52;99511.28;1682271;84;21486;-72
2022/04/23 10:52:53;;;;;;;0.95;0.95;;;;;;;15.52;41.95;99539.55;1664499;84;21062;-73
2022/04/23 10:55:21;;;;;;;0.82;0.80;;;;;;;15.62;41.92;99500.81;1682023;84;22269;-72
2022/04/23 10:57:57;;;;;;;2.70;0.90;;;;;;;15.67;41.63;99514.34;1674747;83;21426;-74
2022/04/23 11:00:30;;;;;;;1.50;0.80;;;;;;;15.74;42.18;99507.48;1685005;83;21265;-73
2022/04/23 11:02:57;;;;;;;1.00;1.00;;;;;;;15.82;41.56;99500.89;1692708;83;21158;-73
2022/04/23 11:14:07;;;;;;;1.02;1.02;;;;;;;15.75;40.09;99507.78;1672145;83;21130;-72
2022/04/23 11:16:38;;;;;;;1.60;1.50;;;;;;;15.81;39.71;99499.28;1692790;83;22382;-72
2022/04/23 11:19:06;;;;;;;1.27;1.05;;;;;;;15.91;40.42;99508.84;1691095;83;21118;-73
2022/04/23 11:21:32;;;;;;;1.12;0.88;;;;;;;15.70;40.38;99457.42;1680358;83;21088;-72
2022/04/23 11:24:02;;;;;;;0.88;0.88;;;;;;;16.09;39.88;99503.23;1690391;83;21022;-72
2022/04/23 11:26:46;;;;;;;2.05;1.02;;;;;;;16.08;40.55;99494.06;1684227;83;21037;-76
2022/04/23 11:29:15;;;;;;;1.92;0.90;;;;;;;16.13;40.42;99498.98;1693900;83;21058;-73
2022/04/23 11:31:56;;;;;;;1.00;1.00;;;;;;;16.19;40.23;99468.96;1693540;83;21329;-71
2022/04/23 11:34:25;;;;;;;1.10;0.98;;;;;;;16.20;40.03;99493.96;1692447;83;20996;-73
2022/04/23 11:36:51;;;;;;;0.93;0.80;;;;;;;16.13;39.87;99480.17;1693585;83;21067;-73
2022/04/23 11:39:26;;;;;;;1.82;1.72;;;;;;;16.15;39.92;99472.67;1692694;83;21106;-73
2022/04/23 11:41:53;;;;;;;1.42;0.82;;;;;;;16.16;40.23;99462.72;1692778;83;21055;-74
2022/04/23 11:44:45;;;;;;;5.60;0.88;;;;;;;16.15;40.11;99466.48;1693754;83;21039;-73
2022/04/23 11:46:54;;;;;;;1.67;1.57;;;;;;;16.10;40.34;99466.41;1689787;83;21097;-72
2022/04/23 11:49:30;;;;;;;2.25;1.22;;;;;;;16.10;40.27;99468.55;1694196;83;21033;-73
2022/04/23 11:52:02;;;;;;;1.60;1.15;;;;;;;16.19;40.00;99456.86;1682068;83;21445;-74
2022/04/23 11:54:39;;;;;;;0.98;0.98;;;;;;;16.25;38.71;99444.30;1686728;83;21055;-73
2022/04/23 11:57:17;;;;;;;2.12;0.98;;;;;;;16.25;38.32;99463.12;1692479;83;21027;-72
2022/04/23 11:59:48;;;;;;;2.83;1.20;;;;;;;16.19;38.22;99456.86;1692601;83;21010;-73
2022/04/23 12:02:22;;;;;;;1.72;1.62;;;;;;;16.14;38.80;99440.14;1693182;83;21115;-75
2022/04/23 12:04:57;;;;;;;1.47;0.88;;;;;;;16.20;39.25;99438.34;1692147;83;21058;-73
2022/04/23 12:07:26;;;;;;;3.17;0.95;;;;;;;16.25;39.19;99443.77;1685057;83;21019;-72
2022/04/23 12:09:55;;;;;;;1.85;0.93;;;;;;;16.25;38.80;99449.14;1692745;83;21101;-74
2022/04/23 12:12:27;;;;;;;3.25;0.95;;;;;;;16.20;37.68;99453.63;1692892;83;21134;-69